Time;durP1;ratioP1;P1;durP2;ratioP2;P2;SDS_P1;SDS_P2;PMS_P1;PMS_P2;Temp;Humidity;BMP_temperature;BMP_pressure;BME280_temperature;BME280_humidity;BME280_pressure;Samples;Min_cycle;Max_cycle;Signal;HPM_P1;HPM_P2
2021/05/13 00:02:17;;;;;;;14.67;9.80;;;14.50;99.90;;;;;;5189516;28;20218;-68
2021/05/13 00:04:49;;;;;;;18.60;9.87;;;14.40;99.90;;;;;;5189511;28;20207;-68
2021/05/13 00:07:21;;;;;;;14.17;9.43;;;14.20;99.90;;;;;;5189366;28;20214;-68
2021/05/13 00:09:53;;;;;;;14.53;9.70;;;14.00;99.90;;;;;;5189495;28;20207;-68
2021/05/13 00:15:20;;;;;;;13.83;9.50;;;13.80;99.90;;;;;;5188075;28;20218;-68
2021/05/13 00:17:53;;;;;;;15.03;10.13;;;13.80;99.90;;;;;;5189237;28;20569;-67
2021/05/13 00:20:38;;;;;;;13.10;10.00;;;13.80;99.90;;;;;;5188901;28;20207;-68
2021/05/13 00:23:10;;;;;;;13.10;10.17;;;13.90;99.90;;;;;;5189346;28;20540;-67
2021/05/13 00:25:43;;;;;;;13.47;10.50;;;13.90;99.90;;;;;;5189203;28;20206;-68
2021/05/13 00:28:14;;;;;;;13.90;9.83;;;14.00;99.90;;;;;;5189305;28;20545;-67
2021/05/13 00:30:47;;;;;;;16.90;10.50;;;14.00;99.90;;;;;;5189071;28;20207;-68
2021/05/13 00:33:19;;;;;;;15.17;10.27;;;14.10;99.90;;;;;;5188639;28;20321;-70
2021/05/13 00:35:51;;;;;;;15.57;9.70;;;14.10;99.90;;;;;;5204338;28;20206;-70
2021/05/13 00:38:23;;;;;;;14.70;9.27;;;14.20;99.90;;;;;;5189155;28;20572;-68
2021/05/13 00:40:54;;;;;;;13.43;9.80;;;14.20;99.90;;;;;;5189003;28;20202;-72
2021/05/13 00:43:26;;;;;;;12.93;9.60;;;14.10;99.90;;;;;;5188856;28;20210;-69
2021/05/13 00:45:58;;;;;;;15.23;10.47;;;14.00;99.90;;;;;;5188974;28;20203;-69
2021/05/13 00:48:34;;;;;;;16.17;10.50;;;13.80;99.90;;;;;;5188611;28;20210;-69
2021/05/13 00:51:07;;;;;;;16.97;11.93;;;13.70;99.90;;;;;;5188547;28;20203;-74
2021/05/13 00:53:48;;;;;;;18.53;13.03;;;13.50;99.90;;;;;;5188405;28;20252;-69
2021/05/13 00:56:21;;;;;;;16.90;12.27;;;13.40;99.90;;;;;;5188710;28;20199;-70
2021/05/13 00:59:01;;;;;;;19.23;12.67;;;13.30;99.90;;;;;;5188770;28;20210;-70
2021/05/13 01:01:52;;;;;;;18.90;12.33;;;13.20;99.90;;;;;;5188523;28;20210;-69
2021/05/13 01:04:24;;;;;;;15.47;11.40;;;13.10;99.90;;;;;;5188303;28;20206;-69
2021/05/13 01:06:56;;;;;;;19.80;12.60;;;13.10;99.90;;;;;;5188179;28;20209;-70
2021/05/13 01:09:31;;;;;;;15.47;11.40;;;13.00;99.90;;;;;;5188131;28;20294;-68
2021/05/13 01:12:09;;;;;;;15.23;11.03;;;13.00;99.90;;;;;;5187913;28;20236;-69
2021/05/13 01:14:43;;;;;;;16.77;10.73;;;13.00;99.90;;;;;;5188659;28;20209;-70
2021/05/13 01:17:41;;;;;;;15.73;11.20;;;13.00;99.90;;;;;;5187913;28;20209;-69
2021/05/13 01:20:09;;;;;;;18.40;11.30;;;12.90;99.90;;;;;;5188032;28;20222;-70
2021/05/13 01:22:41;;;;;;;18.00;10.87;;;12.90;99.90;;;;;;5188183;28;20575;-69
2021/05/13 01:25:13;;;;;;;15.27;10.93;;;12.90;99.90;;;;;;5189048;28;20207;-69
2021/05/13 01:27:45;;;;;;;18.47;12.07;;;12.90;99.90;;;;;;5208420;28;20206;-70
2021/05/13 01:30:17;;;;;;;11.63;9.80;;;12.90;99.90;;;;;;5208396;28;20209;-69
2021/05/13 01:32:49;;;;;;;13.30;9.70;;;12.90;99.90;;;;;;5208143;28;20232;-70
2021/05/13 01:35:21;;;;;;;14.97;10.03;;;12.90;99.90;;;;;;5208117;28;20213;-69
2021/05/13 01:38:13;;;;;;;15.57;10.90;;;12.90;99.90;;;;;;5208348;28;20210;-67
2021/05/13 01:40:50;;;;;;;16.27;10.97;;;12.90;99.90;;;;;;5208174;28;20202;-69
2021/05/13 01:43:24;;;;;;;17.97;11.33;;;12.80;99.90;;;;;;5208518;28;20202;-70
2021/05/13 01:45:58;;;;;;;20.53;11.33;;;12.80;99.90;;;;;;5208124;28;20537;-71
2021/05/13 01:48:30;;;;;;;13.50;10.40;;;12.80;99.90;;;;;;5207714;28;20212;-69
2021/05/13 01:51:03;;;;;;;12.80;10.57;;;12.80;99.90;;;;;;5208218;28;20206;-69
2021/05/13 01:53:35;;;;;;;16.17;9.83;;;12.80;99.90;;;;;;5207645;28;20225;-69
2021/05/13 01:56:08;;;;;;;14.17;10.20;;;12.70;99.90;;;;;;5208163;28;20198;-68
2021/05/13 01:58:42;;;;;;;16.73;10.33;;;12.70;99.90;;;;;;5207892;28;20210;-68
2021/05/13 02:01:15;;;;;;;12.57;9.67;;;12.70;99.90;;;;;;5206945;28;20198;-69
2021/05/13 02:03:47;;;;;;;15.13;10.77;;;12.70;99.90;;;;;;5207525;28;20210;-68
2021/05/13 02:06:19;;;;;;;16.90;10.80;;;12.70;99.90;;;;;;5207575;28;20211;-70
2021/05/13 02:08:51;;;;;;;13.90;10.07;;;12.70;99.90;;;;;;5207586;28;20202;-69
2021/05/13 02:11:23;;;;;;;17.93;10.93;;;12.70;99.90;;;;;;5207700;28;20536;-68
2021/05/13 02:13:55;;;;;;;16.40;10.90;;;12.70;99.90;;;;;;5207308;28;20234;-69
2021/05/13 02:16:26;;;;;;;16.33;11.37;;;12.70;99.90;;;;;;5207602;28;20206;-69
2021/05/13 02:18:58;;;;;;;15.63;10.43;;;12.70;99.90;;;;;;5207383;28;20221;-71
2021/05/13 02:21:30;;;;;;;16.83;10.03;;;12.80;99.90;;;;;;5207354;28;20601;-70
2021/05/13 02:24:02;;;;;;;15.80;10.47;;;12.80;99.90;;;;;;5207283;28;20206;-69
2021/05/13 02:26:34;;;;;;;14.43;9.57;;;12.70;99.90;;;;;;5207389;28;20206;-69
2021/05/13 02:29:07;;;;;;;14.53;9.83;;;12.70;99.90;;;;;;5207432;28;20202;-69
2021/05/13 02:31:39;;;;;;;13.60;9.40;;;12.70;99.90;;;;;;5207784;28;20573;-70
2021/05/13 02:34:10;;;;;;;11.83;9.10;;;12.70;99.90;;;;;;5205770;28;20266;-71
2021/05/13 02:36:42;;;;;;;14.70;9.40;;;12.70;99.90;;;;;;5205699;28;20209;-69
2021/05/13 02:39:14;;;;;;;12.00;9.00;;;12.70;99.90;;;;;;5207192;28;20216;-70
2021/05/13 02:41:46;;;;;;;11.23;8.80;;;12.70;99.90;;;;;;5206994;28;20214;-69
2021/05/13 02:44:18;;;;;;;14.07;9.40;;;12.60;99.90;;;;;;5207056;28;20202;-71
2021/05/13 02:46:50;;;;;;;13.63;9.73;;;12.60;99.90;;;;;;5207028;28;20300;-70
2021/05/13 02:49:22;;;;;;;13.10;9.20;;;12.60;99.90;;;;;;5206850;28;20292;-70
2021/05/13 02:51:54;;;;;;;14.20;10.30;;;12.60;99.90;;;;;;5205940;28;20210;-69
2021/05/13 02:54:26;;;;;;;17.83;11.60;;;12.50;99.90;;;;;;5206852;28;20230;-70
2021/05/13 02:56:58;;;;;;;12.50;9.73;;;12.50;99.90;;;;;;5206983;28;20198;-68
2021/05/13 03:02:25;;;;;;;13.00;9.47;;;12.40;99.90;;;;;;5184144;28;20207;-69
2021/05/13 03:04:57;;;;;;;11.27;8.00;;;12.40;99.90;;;;;;5184346;28;20218;-70
2021/05/13 03:07:29;;;;;;;16.10;9.73;;;12.40;99.90;;;;;;5159699;28;20203;-70
2021/05/13 03:10:03;;;;;;;14.53;8.97;;;12.40;99.90;;;;;;5163740;28;20671;-69
2021/05/13 03:12:35;;;;;;;13.73;9.10;;;12.40;99.90;;;;;;5163993;28;20689;-68
2021/05/13 03:15:08;;;;;;;12.57;9.00;;;12.40;99.90;;;;;;5167578;28;20196;-69
2021/05/13 03:17:39;;;;;;;12.20;9.13;;;12.50;99.90;;;;;;5151324;28;20207;-67
2021/05/13 03:20:17;;;;;;;12.83;9.50;;;12.50;99.90;;;;;;5167477;28;20218;-68
2021/05/13 03:22:53;;;;;;;10.83;8.60;;;12.50;99.90;;;;;;5167585;28;20246;-68
2021/05/13 03:25:31;;;;;;;13.23;8.47;;;12.60;99.90;;;;;;5167335;28;20187;-70
2021/05/13 03:28:10;;;;;;;11.90;8.50;;;12.60;99.90;;;;;;5151174;28;20210;-69
2021/05/13 03:30:45;;;;;;;13.30;8.70;;;12.70;99.90;;;;;;5166974;28;20196;-68
2021/05/13 03:33:18;;;;;;;12.37;8.90;;;12.70;99.90;;;;;;5167293;28;20242;-68
2021/05/13 03:35:50;;;;;;;16.60;8.80;;;12.80;99.90;;;;;;5167572;28;20207;-70
2021/05/13 03:38:22;;;;;;;12.33;7.97;;;12.80;99.90;;;;;;5168845;28;20203;-69
2021/05/13 03:40:54;;;;;;;12.17;7.97;;;12.90;99.90;;;;;;5190086;28;20198;-71
2021/05/13 03:43:26;;;;;;;13.63;7.83;;;12.90;99.90;;;;;;5190022;28;20217;-68
2021/05/13 03:45:58;;;;;;;11.43;7.87;;;13.00;99.90;;;;;;5189732;28;20576;-69
2021/05/13 03:48:29;;;;;;;11.60;7.40;;;13.10;99.90;;;;;;5204776;28;20207;-69
2021/05/13 03:51:02;;;;;;;12.73;8.37;;;13.20;99.90;;;;;;5193544;28;20209;-69
2021/05/13 03:53:34;;;;;;;11.53;6.73;;;13.20;99.90;;;;;;5209337;28;20226;-68
2021/05/13 03:56:06;;;;;;;10.30;7.03;;;13.30;99.90;;;;;;5209696;28;20660;-69
2021/05/13 03:58:42;;;;;;;11.47;6.73;;;13.30;99.90;;;;;;5209552;28;20197;-70
2021/05/13 04:02:04;;;;;;;11.10;6.80;;;13.40;99.90;;;;;;5209963;28;20201;-69
2021/05/13 04:04:07;;;;;;;11.67;7.13;;;13.40;99.90;;;;;;5208962;28;20664;-67
2021/05/13 04:06:39;;;;;;;24.40;7.63;;;13.50;99.90;;;;;;5209928;28;20522;-69
2021/05/13 04:09:12;;;;;;;13.40;6.57;;;13.50;99.90;;;;;;5209809;28;20218;-68
2021/05/13 04:11:44;;;;;;;17.03;7.50;;;13.60;99.90;;;;;;5209640;28;20269;-70
2021/05/13 04:14:17;;;;;;;15.97;7.20;;;13.60;99.90;;;;;;5209938;28;20230;-70
2021/05/13 04:16:54;;;;;;;13.07;6.80;;;13.60;99.90;;;;;;5209595;28;20198;-71
2021/05/13 04:19:27;;;;;;;12.80;7.03;;;13.60;99.90;;;;;;5209559;28;20202;-69
2021/05/13 04:21:59;;;;;;;15.00;6.80;;;13.70;99.90;;;;;;5209667;28;20281;-70
2021/05/13 04:24:31;;;;;;;11.00;6.23;;;13.70;99.90;;;;;;5209299;28;20224;-67
2021/05/13 04:27:03;;;;;;;11.47;6.37;;;13.70;99.90;;;;;;5209838;28;20571;-74
2021/05/13 04:29:35;;;;;;;14.67;6.50;;;13.80;99.90;;;;;;5209956;28;20229;-76
2021/05/13 04:32:07;;;;;;;10.93;5.50;;;13.80;99.90;;;;;;5210207;28;20564;-69
2021/05/13 04:34:39;;;;;;;9.90;6.00;;;13.90;99.90;;;;;;5208976;28;20229;-67
2021/05/13 04:37:11;;;;;;;13.37;6.43;;;14.00;99.90;;;;;;5209544;28;20206;-67
2021/05/13 04:39:43;;;;;;;11.27;5.17;;;14.00;99.90;;;;;;5209287;28;20209;-74
2021/05/13 04:42:15;;;;;;;10.00;4.70;;;14.10;99.90;;;;;;5209651;28;20206;-69
2021/05/13 04:44:47;;;;;;;9.03;4.73;;;14.10;99.90;;;;;;5209090;28;20571;-62
2021/05/13 04:47:35;;;;;;;17.03;4.77;;;14.10;99.90;;;;;;5207927;28;20229;-63
2021/05/13 04:50:08;;;;;;;7.97;4.53;;;14.20;99.90;;;;;;5209178;28;20541;-63
2021/05/13 04:52:40;;;;;;;16.80;5.10;;;14.30;99.90;;;;;;5209220;28;20207;-62
2021/05/13 04:55:12;;;;;;;11.60;5.03;;;14.40;99.90;;;;;;5209110;28;20240;-62
2021/05/13 04:57:44;;;;;;;10.80;4.47;;;14.50;99.90;;;;;;5209173;28;20205;-63
2021/05/13 05:00:17;;;;;;;8.27;4.07;;;14.50;99.90;;;;;;5208891;28;20206;-65
2021/05/13 05:02:49;;;;;;;9.17;3.73;;;14.60;99.90;;;;;;5207383;28;20299;-68
2021/05/13 05:05:21;;;;;;;12.40;4.90;;;14.60;99.90;;;;;;5208895;28;20676;-66
2021/05/13 05:07:53;;;;;;;17.77;5.47;;;14.70;99.90;;;;;;5208647;28;20221;-66
2021/05/13 05:10:24;;;;;;;13.63;5.53;;;14.70;99.90;;;;;;5208913;28;20220;-67
2021/05/13 05:12:56;;;;;;;15.80;5.93;;;14.80;99.90;;;;;;5208615;28;20557;-67
2021/05/13 05:15:28;;;;;;;6.77;4.73;;;14.80;99.90;;;;;;5208805;28;20586;-65
2021/05/13 05:18:00;;;;;;;9.87;4.40;;;14.80;99.90;;;;;;5208656;28;20244;-66
2021/05/13 05:20:32;;;;;;;13.53;4.43;;;14.90;99.90;;;;;;5208414;28;20248;-66
2021/05/13 05:23:04;;;;;;;11.43;3.70;;;15.00;99.90;;;;;;5208499;28;20612;-67
2021/05/13 05:25:36;;;;;;;10.50;3.60;;;15.00;99.90;;;;;;5208196;28;20208;-66
2021/05/13 05:28:09;;;;;;;10.37;4.03;;;15.10;99.90;;;;;;5208018;28;20665;-66
2021/05/13 05:30:41;;;;;;;10.63;3.90;;;15.20;99.90;;;;;;5208109;28;20695;-65
2021/05/13 05:33:13;;;;;;;15.87;4.37;;;15.20;99.90;;;;;;5207824;28;20545;-65
2021/05/13 05:35:45;;;;;;;10.20;3.37;;;15.20;99.90;;;;;;5207353;28;20210;-66
2021/05/13 05:38:18;;;;;;;14.57;3.30;;;15.30;99.90;;;;;;5208134;28;20202;-65
2021/05/13 05:40:50;;;;;;;8.17;3.20;;;15.40;99.90;;;;;;5207878;28;20303;-67
2021/05/13 05:43:22;;;;;;;10.00;3.27;;;15.50;99.90;;;;;;5207675;28;20530;-66
2021/05/13 05:45:54;;;;;;;9.30;3.10;;;15.60;99.90;;;;;;5204579;28;20198;-64
2021/05/13 05:48:26;;;;;;;3.87;2.70;;;15.70;99.90;;;;;;5204191;28;20679;-65
2021/05/13 05:50:58;;;;;;;12.17;3.33;;;15.80;99.90;;;;;;5207227;28;20285;-65
2021/05/13 05:53:30;;;;;;;10.77;3.00;;;15.80;99.90;;;;;;5204685;28;20226;-66
2021/05/13 05:56:02;;;;;;;5.77;3.03;;;15.90;99.90;;;;;;5207647;28;20202;-65
2021/05/13 05:58:34;;;;;;;7.20;2.83;;;16.30;99.90;;;;;;5207705;28;20566;-67
2021/05/13 06:01:06;;;;;;;7.75;3.08;;;16.50;99.90;;;;;;5207252;28;20206;-66
2021/05/13 06:03:38;;;;;;;6.53;2.70;;;17.40;99.90;;;;;;5207214;28;20653;-65
2021/05/13 06:06:10;;;;;;;10.25;2.60;;;19.20;99.90;;;;;;5206876;28;20202;-64
2021/05/13 06:08:42;;;;;;;8.07;3.15;;;21.30;99.90;;;;;;5207682;28;20552;-67
2021/05/13 06:11:14;;;;;;;11.52;2.50;;;22.10;98.60;;;;;;5206022;28;20198;-66
2021/05/13 06:13:46;;;;;;;10.48;2.47;;;22.90;95.90;;;;;;5201934;28;20656;-67
2021/05/13 06:16:18;;;;;;;7.97;2.20;;;23.60;93.50;;;;;;5205049;28;20186;-70
2021/05/13 06:18:54;;;;;;;5.53;2.33;;;24.70;92.10;;;;;;5204986;28;20845;-67
2021/05/13 06:21:27;;;;;;;6.35;2.13;;;26.30;88.30;;;;;;5206571;28;20201;-69
2021/05/13 06:24:00;;;;;;;7.22;2.15;;;27.00;83.00;;;;;;5205845;28;20241;-64
2021/05/13 06:26:35;;;;;;;11.15;2.20;;;27.10;78.70;;;;;;5206644;28;20665;-67
2021/05/13 06:29:08;;;;;;;6.40;2.15;;;27.50;79.50;;;;;;5206962;28;20623;-69
2021/05/13 06:31:40;;;;;;;7.20;2.25;;;28.20;75.90;;;;;;5206941;28;20205;-65
2021/05/13 06:34:12;;;;;;;6.38;2.30;;;28.70;73.80;;;;;;5205905;28;20238;-61
2021/05/13 06:36:43;;;;;;;6.43;1.67;;;29.70;72.00;;;;;;5206832;28;20190;-67
2021/05/13 06:39:15;;;;;;;3.25;1.58;;;29.50;67.70;;;;;;5206683;28;20206;-55
2021/05/13 06:41:48;;;;;;;8.05;2.05;;;29.20;66.80;;;;;;5206816;28;20190;-58
2021/05/13 06:44:20;;;;;;;7.82;2.45;;;28.30;67.20;;;;;;5206808;28;20198;-63
2021/05/13 06:46:52;;;;;;;7.40;2.20;;;28.10;66.50;;;;;;5206285;28;20225;-66
2021/05/13 06:49:24;;;;;;;8.15;1.92;;;27.70;68.40;;;;;;5205604;28;20194;-59
2021/05/13 06:51:56;;;;;;;8.75;2.10;;;28.10;68.30;;;;;;5206773;28;20227;-65
2021/05/13 06:54:28;;;;;;;9.80;2.10;;;28.30;66.10;;;;;;5206446;28;20220;-68
2021/05/13 06:57:00;;;;;;;8.23;1.80;;;28.70;67.20;;;;;;5206314;28;20249;-66
2021/05/13 06:59:32;;;;;;;8.68;1.90;;;29.40;66.10;;;;;;5205191;28;20214;-64
2021/05/13 07:02:04;;;;;;;6.25;1.90;;;30.50;64.30;;;;;;5205630;28;20201;-62
2021/05/13 07:04:36;;;;;;;8.82;1.67;;;31.10;63.00;;;;;;5199605;28;20309;-66
2021/05/13 07:07:12;;;;;;;5.43;1.70;;;30.60;60.90;;;;;;5204670;28;20197;-63
2021/05/13 07:09:44;;;;;;;9.38;1.90;;;31.30;62.30;;;;;;5203954;28;20230;-65
2021/05/13 07:12:16;;;;;;;4.05;1.48;;;31.80;60.40;;;;;;5202052;28;20246;-65
2021/05/13 07:14:49;;;;;;;10.35;2.08;;;31.80;60.60;;;;;;5206100;28;20218;-69
2021/05/13 07:17:21;;;;;;;5.15;1.63;;;31.20;58.40;;;;;;5206060;28;20209;-66
2021/05/13 07:19:53;;;;;;;7.70;1.80;;;31.00;58.60;;;;;;5204864;28;20210;-67
2021/05/13 07:22:25;;;;;;;5.80;1.75;;;30.70;58.80;;;;;;5206027;28;20645;-62
2021/05/13 07:24:56;;;;;;;4.43;1.65;;;29.40;59.10;;;;;;5206199;28;20202;-64
2021/05/13 07:27:34;;;;;;;4.65;1.80;;;28.80;61.90;;;;;;5206151;28;20195;-53
2021/05/13 07:30:07;;;;;;;3.90;1.80;;;28.10;63.80;;;;;;5206118;28;20205;-64
2021/05/13 07:32:39;;;;;;;8.07;1.40;;;27.80;65.80;;;;;;5206508;28;20553;-57
2021/05/13 07:35:14;;;;;;;5.90;2.05;;;27.70;64.40;;;;;;5205617;28;20719;-61
2021/05/13 07:37:47;;;;;;;5.63;1.85;;;27.20;64.90;;;;;;5205020;28;20220;-60
2021/05/13 07:40:22;;;;;;;9.55;1.88;;;26.40;65.60;;;;;;5206276;28;20271;-62
2021/05/13 07:42:55;;;;;;;6.78;1.52;;;26.00;68.10;;;;;;5205834;28;20548;-57
2021/05/13 07:45:27;;;;;;;4.28;1.50;;;25.70;70.70;;;;;;5204922;28;20205;-64
2021/05/13 07:48:00;;;;;;;5.05;1.70;;;25.60;68.20;;;;;;5206278;28;20198;-62
2021/05/13 07:50:33;;;;;;;4.00;1.40;;;25.30;70.80;;;;;;5205670;28;20208;-49
2021/05/13 07:53:06;;;;;;;6.13;1.83;;;25.30;69.70;;;;;;5205415;28;20190;-59
2021/05/13 07:55:39;;;;;;;5.00;1.77;;;24.70;67.60;;;;;;5205778;28;20602;-57
2021/05/13 07:58:11;;;;;;;12.70;2.03;;;24.30;70.80;;;;;;5205725;28;20293;-62
2021/05/13 08:00:43;;;;;;;6.28;1.38;;;24.10;71.00;;;;;;5209814;28;20198;-57
2021/05/13 08:03:15;;;;;;;9.25;1.42;;;24.20;72.60;;;;;;5162060;28;20343;-51
2021/05/13 08:05:47;;;;;;;10.48;2.03;;;24.20;69.40;;;;;;5206049;28;20197;-52
2021/05/13 08:08:19;;;;;;;6.05;1.40;;;23.90;71.30;;;;;;5205348;28;20894;-53
2021/05/13 08:10:51;;;;;;;5.55;1.48;;;23.80;69.00;;;;;;5196607;28;20202;-56
2021/05/13 08:13:23;;;;;;;6.30;1.92;;;23.70;70.30;;;;;;5208285;28;20245;-65
2021/05/13 08:15:55;;;;;;;7.03;1.75;;;23.80;70.60;;;;;;5208776;28;20238;-58
2021/05/13 08:18:27;;;;;;;6.97;2.08;;;23.70;71.80;;;;;;5208972;28;20194;-59
2021/05/13 08:21:01;;;;;;;4.25;1.27;;;23.50;72.10;;;;;;5207723;28;20615;-47
2021/05/13 08:23:33;;;;;;;7.18;1.58;;;23.50;73.50;;;;;;5220792;28;20725;-63
2021/05/13 08:26:05;;;;;;;7.53;1.40;;;23.80;75.00;;;;;;5229688;28;20190;-65
2021/05/13 08:28:37;;;;;;;5.15;1.50;;;23.90;73.90;;;;;;5229636;28;20233;-51
2021/05/13 08:31:09;;;;;;;3.45;1.30;;;23.90;73.30;;;;;;5229339;28;20205;-48
2021/05/13 08:33:41;;;;;;;9.13;1.50;;;23.80;72.60;;;;;;5226798;28;20648;-52
2021/05/13 08:36:13;;;;;;;3.53;1.23;;;23.70;70.70;;;;;;5228431;28;20229;-48
2021/05/13 08:38:45;;;;;;;2.28;1.23;;;23.70;71.50;;;;;;5229854;28;20185;-59
2021/05/13 08:41:17;;;;;;;5.65;1.52;;;23.70;71.80;;;;;;5229261;28;20200;-54
2021/05/13 08:43:52;;;;;;;11.30;1.30;;;23.90;72.40;;;;;;5229413;28;20196;-48
2021/05/13 08:46:24;;;;;;;7.13;1.30;;;23.60;70.40;;;;;;5229096;28;20200;-49
2021/05/13 08:48:56;;;;;;;2.95;1.23;;;23.40;71.20;;;;;;5228872;28;20346;-50
2021/05/13 08:51:28;;;;;;;3.83;0.95;;;23.40;72.00;;;;;;5228307;28;20209;-51
2021/05/13 08:54:01;;;;;;;3.90;2.05;;;23.70;74.50;;;;;;5208699;28;20308;-63
2021/05/13 08:56:33;;;;;;;4.95;1.30;;;23.80;73.00;;;;;;5203245;28;20256;-58
2021/05/13 08:59:06;;;;;;;4.60;1.20;;;23.90;72.70;;;;;;5208210;28;20222;-62
2021/05/13 09:01:57;;;;;;;6.70;1.63;;;23.80;73.10;;;;;;5208435;28;20210;-63
2021/05/13 09:04:38;;;;;;;4.85;1.88;;;24.00;75.40;;;;;;5208221;28;20652;-54
2021/05/13 09:07:26;;;;;;;3.35;1.25;;;24.20;74.80;;;;;;5206809;28;20235;-62
2021/05/13 09:10:08;;;;;;;2.55;1.40;;;23.90;72.20;;;;;;5208075;28;20212;-64
2021/05/13 09:12:50;;;;;;;3.35;1.23;;;23.50;71.60;;;;;;5208043;28;20307;-62
2021/05/13 09:15:27;;;;;;;4.00;1.33;;;23.40;75.00;;;;;;5207852;28;20230;-61
2021/05/13 09:17:59;;;;;;;4.20;1.05;;;23.30;70.60;;;;;;5207675;28;20198;-59
2021/05/13 09:20:38;;;;;;;3.40;1.13;;;22.80;71.80;;;;;;5208060;28;20202;-66
2021/05/13 09:23:11;;;;;;;4.20;1.20;;;22.60;72.60;;;;;;5208082;28;20570;-62
2021/05/13 09:25:45;;;;;;;2.13;1.10;;;22.40;73.90;;;;;;5205975;28;20209;-60
2021/05/13 09:28:25;;;;;;;9.40;1.48;;;22.70;75.50;;;;;;5207959;28;20253;-59
2021/05/13 09:30:57;;;;;;;6.97;1.77;;;22.70;74.00;;;;;;5208018;28;20213;-53
2021/05/13 09:33:42;;;;;;;5.30;1.50;;;22.60;74.30;;;;;;5208225;28;20194;-49
2021/05/13 09:36:22;;;;;;;4.00;1.35;;;22.50;73.80;;;;;;5206237;28;20229;-55
2021/05/13 09:38:55;;;;;;;5.95;0.95;;;22.30;72.00;;;;;;5207544;28;20285;-50
2021/05/13 09:41:28;;;;;;;3.83;1.00;;;22.10;72.70;;;;;;5207810;28;20202;-58
2021/05/13 09:44:01;;;;;;;2.75;1.10;;;22.10;72.70;;;;;;5208013;28;20210;-62
2021/05/13 09:49:13;;;;;;;4.93;1.25;;;21.80;75.50;;;;;;5526510;22;20245;-58
2021/05/13 09:51:45;;;;;;;5.65;1.20;;;21.90;76.00;;;;;;5224596;28;20216;-63
2021/05/13 09:54:39;;;;;;;3.42;1.52;;;21.90;74.60;;;;;;5224947;28;20209;-61
2021/05/13 09:57:27;;;;;;;3.80;1.05;;;22.00;75.10;;;;;;5226002;22;20244;-50
2021/05/13 09:59:58;;;;;;;6.10;1.40;;;22.10;76.70;;;;;;5220212;28;20205;-61
2021/05/13 10:02:31;;;;;;;5.15;1.08;;;22.00;75.30;;;;;;5227061;28;20197;-52
2021/05/13 10:05:04;;;;;;;4.57;1.00;;;21.70;73.10;;;;;;5206483;28;20209;-60
2021/05/13 10:07:36;;;;;;;7.32;1.25;;;21.40;72.20;;;;;;5205801;28;20646;-71
2021/05/13 10:10:11;;;;;;;8.82;1.10;;;21.30;73.30;;;;;;5207297;28;20589;-65
2021/05/13 10:12:44;;;;;;;4.30;1.42;;;21.40;71.50;;;;;;5218413;28;20201;-69
2021/05/13 10:15:17;;;;;;;2.80;1.15;;;21.30;70.80;;;;;;5225441;28;20236;-70
2021/05/13 10:17:51;;;;;;;3.50;1.00;;;21.50;74.60;;;;;;5227018;28;20284;-67
2021/05/13 10:20:27;;;;;;;2.40;1.10;;;21.60;73.80;;;;;;5226239;28;20429;-66
2021/05/13 10:23:00;;;;;;;7.95;1.20;;;21.60;72.00;;;;;;5227257;28;20445;-68
2021/05/13 10:25:34;;;;;;;4.57;1.10;;;21.70;73.20;;;;;;5224291;28;20201;-69
2021/05/13 10:28:06;;;;;;;4.90;1.10;;;21.90;73.50;;;;;;5226525;28;20735;-71
2021/05/13 10:30:38;;;;;;;4.13;1.45;;;22.00;73.30;;;;;;5226163;28;20205;-62
2021/05/13 10:33:12;;;;;;;6.68;1.67;;;21.90;74.40;;;;;;5227094;28;20190;-65
2021/05/13 10:36:04;;;;;;;13.13;2.28;;;21.70;77.10;;;;;;5226656;28;20239;-71
2021/05/13 10:38:44;;;;;;;14.85;2.22;;;21.50;78.30;;;;;;5223956;28;20194;-65
2021/05/13 10:41:41;;;;;;;5.45;1.80;;;21.20;79.80;;;;;;5216558;28;20216;-65
2021/05/13 10:44:15;;;;;;;11.75;2.15;;;21.10;81.20;;;;;;5216010;28;20200;-68
2021/05/13 10:46:57;;;;;;;6.00;2.22;;;20.80;82.50;;;;;;5225917;28;20521;-68
2021/05/13 10:49:30;;;;;;;6.60;2.22;;;20.90;83.60;;;;;;5225818;28;20201;-69
2021/05/13 10:52:33;;;;;;;8.02;2.28;;;20.70;82.30;;;;;;5226646;28;20212;-68
2021/05/13 10:55:08;;;;;;;5.72;2.17;;;20.50;82.00;;;;;;5220910;28;20232;-68
2021/05/13 10:57:51;;;;;;;6.88;2.10;;;20.50;82.90;;;;;;5231215;28;20201;-66
2021/05/13 11:00:23;;;;;;;6.28;2.00;;;20.40;82.50;;;;;;5226687;28;20193;-66
2021/05/13 11:02:56;;;;;;;7.47;1.90;;;20.40;82.20;;;;;;5225479;28;20212;-64
2021/05/13 11:05:28;;;;;;;14.20;2.08;;;20.30;82.90;;;;;;5226592;28;20197;-64
2021/05/13 11:08:09;;;;;;;7.00;2.00;;;20.30;83.30;;;;;;5226745;28;20205;-68
2021/05/13 11:11:02;;;;;;;4.88;2.03;;;20.30;84.20;;;;;;5226797;28;20193;-67
2021/05/13 11:13:52;;;;;;;8.65;1.70;;;20.30;82.30;;;;;;5223826;28;20588;-67
2021/05/13 11:16:44;;;;;;;4.50;1.92;;;20.30;82.00;;;;;;5221201;28;20232;-66
2021/05/13 11:19:24;;;;;;;11.45;1.70;;;20.30;81.10;;;;;;5227536;28;20189;-69
2021/05/13 11:22:06;;;;;;;6.40;1.50;;;20.20;81.80;;;;;;5218008;28;20201;-70
2021/05/13 11:24:40;;;;;;;5.65;1.77;;;20.30;82.10;;;;;;5226101;28;20279;-69
2021/05/13 11:27:12;;;;;;;3.90;1.58;;;20.30;80.60;;;;;;5227007;28;20604;-66
2021/05/13 11:29:51;;;;;;;5.18;1.83;;;20.30;81.70;;;;;;5226544;28;20194;-67
2021/05/13 11:32:23;;;;;;;7.93;1.65;;;20.20;80.60;;;;;;5226623;28;20204;-64
2021/05/13 11:34:55;;;;;;;7.80;1.83;;;20.30;80.80;;;;;;5229022;28;20251;-70
2021/05/13 11:37:40;;;;;;;5.07;1.60;;;20.30;80.80;;;;;;5230177;28;20208;-67
2021/05/13 11:40:38;;;;;;;6.07;1.48;;;20.30;79.90;;;;;;5229086;28;20197;-67
2021/05/13 11:43:28;;;;;;;2.63;1.52;;;20.40;82.70;;;;;;5230359;28;20193;-68
2021/05/13 11:46:08;;;;;;;7.28;1.83;;;20.40;81.00;;;;;;5197427;28;20214;-64
2021/05/13 11:48:45;;;;;;;6.45;1.40;;;20.30;81.70;;;;;;5229541;28;20197;-64
2021/05/13 11:51:22;;;;;;;7.03;1.60;;;20.30;82.10;;;;;;5230029;28;20209;-63
2021/05/13 11:53:56;;;;;;;8.73;1.60;;;20.30;81.30;;;;;;5229998;28;20196;-61
2021/05/13 11:56:31;;;;;;;4.18;1.50;;;20.30;81.60;;;;;;5230123;28;20248;-62
2021/05/13 11:59:04;;;;;;;2.38;1.30;;;20.30;80.70;;;;;;5229891;28;20197;-60
2021/05/13 12:01:37;;;;;;;5.97;1.77;;;20.20;80.40;;;;;;5230498;28;20671;-61
2021/05/13 12:04:14;;;;;;;7.93;1.50;;;20.20;80.90;;;;;;5229822;28;20189;-60
2021/05/13 12:06:45;;;;;;;6.22;1.30;;;20.30;80.40;;;;;;5230031;28;20572;-61
2021/05/13 12:09:20;;;;;;;4.80;1.30;;;20.50;79.10;;;;;;5229622;28;20193;-60
2021/05/13 12:11:54;;;;;;;2.72;1.13;;;20.50;77.70;;;;;;5229117;28;20189;-60
2021/05/13 12:14:31;;;;;;;5.65;1.20;;;20.60;78.20;;;;;;5228919;28;20209;-58
2021/05/13 12:17:09;;;;;;;3.65;1.10;;;20.60;79.00;;;;;;5229184;28;20221;-62
2021/05/13 12:19:43;;;;;;;4.55;1.10;;;20.50;76.10;;;;;;5227936;28;20196;-59
2021/05/13 12:22:17;;;;;;;7.45;1.00;;;20.40;74.90;;;;;;5207699;28;20209;-61
2021/05/13 12:24:53;;;;;;;3.08;0.90;;;20.50;75.70;;;;;;5226530;28;20201;-58
2021/05/13 12:27:25;;;;;;;4.13;1.00;;;20.50;74.30;;;;;;5228328;28;20199;-70
2021/05/13 12:29:57;;;;;;;3.42;0.80;;;20.50;74.60;;;;;;5207549;28;20190;-62
2021/05/13 12:32:33;;;;;;;8.68;1.40;;;20.70;72.60;;;;;;5208280;28;20566;-55
2021/05/13 12:35:29;;;;;;;6.75;0.82;;;20.70;72.70;;;;;;5207462;28;20268;-59
2021/05/13 12:38:16;;;;;;;3.60;1.00;;;20.70;72.20;;;;;;5207409;28;20198;-59
2021/05/13 12:41:05;;;;;;;2.33;0.90;;;20.80;73.00;;;;;;5225873;28;20201;-58
2021/05/13 12:43:37;;;;;;;2.78;1.10;;;20.80;73.10;;;;;;5228444;28;20204;-59
2021/05/13 12:46:42;;;;;;;4.40;0.82;;;20.60;73.30;;;;;;5227407;28;20193;-58
2021/05/13 12:49:23;;;;;;;6.85;2.08;;;20.60;73.90;;;;;;5164209;28;20269;-54
2021/05/13 12:52:06;;;;;;;3.00;1.15;;;20.80;74.30;;;;;;5167192;28;20733;-56
2021/05/13 12:54:40;;;;;;;5.28;1.10;;;20.70;74.40;;;;;;5165175;28;20600;-55
2021/05/13 12:57:20;;;;;;;6.75;1.20;;;20.90;75.00;;;;;;5166574;28;20333;-53
2021/05/13 12:59:52;;;;;;;4.90;1.15;;;21.00;74.80;;;;;;5160628;28;20612;-62
2021/05/13 13:02:25;;;;;;;4.68;1.02;;;21.10;74.20;;;;;;5184263;28;20612;-51
2021/05/13 13:04:59;;;;;;;7.28;1.27;;;21.00;73.00;;;;;;5184311;28;20210;-53
2021/05/13 13:07:39;;;;;;;3.90;1.25;;;21.00;73.70;;;;;;5184281;28;20216;-52
2021/05/13 13:10:26;;;;;;;5.22;1.50;;;21.20;74.00;;;;;;5183997;28;20199;-61
2021/05/13 13:13:23;;;;;;;10.18;1.38;;;21.10;72.90;;;;;;5184366;28;20210;-58
2021/05/13 13:16:02;;;;;;;10.20;1.85;;;20.80;72.30;;;;;;5183988;28;20238;-60
2021/05/13 13:18:34;;;;;;;5.40;1.40;;;20.40;72.80;;;;;;5184055;28;20677;-55
2021/05/13 13:21:17;;;;;;;2.47;1.13;;;20.40;74.70;;;;;;5183928;28;20207;-59
2021/05/13 13:23:51;;;;;;;5.20;1.40;;;20.20;73.60;;;;;;5184172;28;20197;-76
2021/05/13 13:26:29;;;;;;;2.45;1.25;;;20.10;73.40;;;;;;5207698;28;20237;-66
2021/05/13 13:29:00;;;;;;;5.13;1.15;;;20.00;74.00;;;;;;5223335;28;20561;-65